createdAt,value
2018-10-18T00:01:35.821Z,99.90
2018-10-18T00:04:06.660Z,99.90
2018-10-18T00:06:37.447Z,99.90
2018-10-18T00:09:11.496Z,99.90
2018-10-18T00:11:42.231Z,99.90
2018-10-18T00:14:12.788Z,99.90
2018-10-18T00:16:43.574Z,99.90
2018-10-18T00:19:14.507Z,99.90
2018-10-18T00:21:45.276Z,99.90
2018-10-18T00:24:16.233Z,99.90
2018-10-18T00:26:47.146Z,99.90
2018-10-18T00:29:18.263Z,99.90
2018-10-18T00:31:49.512Z,99.90
2018-10-18T00:34:20.346Z,99.90
2018-10-18T00:36:52.932Z,99.90
2018-10-18T00:39:23.694Z,99.90
2018-10-18T00:41:54.780Z,99.90
2018-10-18T00:44:25.715Z,99.90
2018-10-18T00:46:56.501Z,99.90
2018-10-18T00:49:27.419Z,99.90
2018-10-18T00:51:58.130Z,99.90
2018-10-18T00:54:28.834Z,99.90
2018-10-18T00:56:59.585Z,99.90
2018-10-18T00:59:30.482Z,99.90
2018-10-18T01:02:01.234Z,99.90
2018-10-18T01:04:32.215Z,99.90
2018-10-18T01:07:03.138Z,99.90
2018-10-18T01:09:33.868Z,99.90
2018-10-18T01:12:04.627Z,99.90
2018-10-18T01:14:35.365Z,99.90
2018-10-18T01:17:06.540Z,99.90
2018-10-18T01:19:40.400Z,99.90
2018-10-18T01:22:11.462Z,99.90
2018-10-18T01:24:42.171Z,99.90
2018-10-18T01:27:12.938Z,99.90
2018-10-18T01:29:43.866Z,99.90
2018-10-18T01:32:15.034Z,99.90
2018-10-18T01:34:45.891Z,99.90
2018-10-18T01:37:16.582Z,99.90
2018-10-18T01:39:47.544Z,99.90
2018-10-18T01:42:24.922Z,99.90
2018-10-18T01:44:56.007Z,99.90
2018-10-18T01:47:26.924Z,99.90
2018-10-18T01:49:57.852Z,99.90
2018-10-18T01:52:28.643Z,99.90
2018-10-18T01:54:59.348Z,99.90
2018-10-18T01:57:30.117Z,99.90
2018-10-18T02:00:01.780Z,99.90
2018-10-18T02:02:32.601Z,99.90
2018-10-18T02:05:03.482Z,99.90
2018-10-18T02:07:34.132Z,99.90
2018-10-18T02:10:04.813Z,99.90
2018-10-18T02:12:35.506Z,99.90
2018-10-18T02:15:06.629Z,99.90
2018-10-18T02:17:37.078Z,99.90
2018-10-18T02:20:09.240Z,99.90
2018-10-18T02:22:40.421Z,99.90
2018-10-18T02:25:14.204Z,99.90
2018-10-18T02:27:44.830Z,99.90
2018-10-18T02:30:15.819Z,99.90
2018-10-18T02:32:46.613Z,99.90
2018-10-18T02:35:17.353Z,99.90
2018-10-18T02:37:48.013Z,99.90
2018-10-18T02:40:18.687Z,99.90
2018-10-18T02:42:49.325Z,99.90
2018-10-18T02:45:19.914Z,99.90
2018-10-18T02:47:50.665Z,99.90
2018-10-18T02:50:21.319Z,99.90
2018-10-18T02:52:52.101Z,99.90
2018-10-18T02:55:22.849Z,99.90
2018-10-18T02:57:53.742Z,99.90
2018-10-18T03:00:24.495Z,99.90
2018-10-18T03:02:55.532Z,99.90
2018-10-18T03:05:26.343Z,99.90
2018-10-18T03:07:57.256Z,99.90
2018-10-18T03:10:28.159Z,99.90
2018-10-18T03:12:58.992Z,99.90
2018-10-18T03:15:29.941Z,99.90
2018-10-18T03:18:01.103Z,99.90
2018-10-18T03:20:32.665Z,99.90
2018-10-18T03:23:03.388Z,99.90
2018-10-18T03:25:35.037Z,99.90
2018-10-18T03:28:05.824Z,99.90
2018-10-18T03:30:36.576Z,99.90
2018-10-18T03:33:07.495Z,99.90
2018-10-18T03:35:38.283Z,99.90
2018-10-18T03:41:13.102Z,99.90
2018-10-18T03:44:00.217Z,99.90
2018-10-18T03:46:31.259Z,99.90
2018-10-18T03:49:03.475Z,99.90
2018-10-18T03:51:34.705Z,99.90
2018-10-18T03:54:18.042Z,99.90
2018-10-18T03:56:51.394Z,99.90
2018-10-18T03:59:22.330Z,99.90
2018-10-18T04:01:53.150Z,99.90
2018-10-18T04:04:23.857Z,99.90
2018-10-18T04:06:55.609Z,99.90
2018-10-18T04:09:43.656Z,99.90
2018-10-18T04:12:14.294Z,99.90
2018-10-18T04:14:45.156Z,99.90
2018-10-18T04:17:16.917Z,99.90
2018-10-18T04:19:54.480Z,99.90
2018-10-18T04:22:25.305Z,99.90
2018-10-18T04:24:57.024Z,99.90
2018-10-18T04:27:27.930Z,99.90
2018-10-18T04:29:58.734Z,99.90
2018-10-18T04:32:29.449Z,99.90
2018-10-18T04:35:00.326Z,99.90
2018-10-18T04:37:31.188Z,99.90
2018-10-18T04:40:02.036Z,99.90
2018-10-18T04:42:59.740Z,99.90
2018-10-18T04:45:30.527Z,99.90
2018-10-18T04:48:01.405Z,99.90
2018-10-18T04:50:33.152Z,99.90
2018-10-18T04:53:04.322Z,99.90
2018-10-18T04:55:35.239Z,99.90
2018-10-18T04:58:08.244Z,99.90
2018-10-18T05:00:39.227Z,99.90
2018-10-18T05:03:10.317Z,99.90
2018-10-18T05:05:59.310Z,99.90
2018-10-18T05:08:30.723Z,99.90
2018-10-18T05:11:01.668Z,99.90
2018-10-18T05:13:32.305Z,99.90
2018-10-18T05:16:03.479Z,99.90
2018-10-18T05:18:34.463Z,99.90
2018-10-18T05:21:05.339Z,99.90
2018-10-18T05:23:36.234Z,99.90
2018-10-18T05:26:07.363Z,99.90
2018-10-18T05:28:40.121Z,99.90
2018-10-18T05:31:11.206Z,99.90
2018-10-18T05:33:42.116Z,99.90
2018-10-18T05:36:12.948Z,99.90
2018-10-18T05:38:43.936Z,99.90
2018-10-18T05:41:14.980Z,99.90
2018-10-18T05:43:46.361Z,99.90
2018-10-18T05:46:17.292Z,99.90
2018-10-18T05:48:50.024Z,99.90
2018-10-18T05:51:20.797Z,99.90
2018-10-18T05:53:52.609Z,99.90
2018-10-18T05:56:24.093Z,99.90
2018-10-18T05:58:55.330Z,99.90
2018-10-18T06:01:26.235Z,99.90
2018-10-18T06:03:57.146Z,99.90
2018-10-18T06:06:27.941Z,99.90
2018-10-18T06:08:58.776Z,99.90
2018-10-18T06:11:31.898Z,99.90
2018-10-18T06:14:02.901Z,99.90
2018-10-18T06:16:34.058Z,99.90
2018-10-18T06:19:05.012Z,99.90
2018-10-18T06:21:35.941Z,99.90
2018-10-18T06:24:07.743Z,99.90
2018-10-18T06:26:38.727Z,99.90
2018-10-18T06:29:09.662Z,99.90
2018-10-18T06:31:42.484Z,99.90
2018-10-18T06:34:13.614Z,99.90
2018-10-18T06:36:44.858Z,99.90
2018-10-18T06:39:16.773Z,99.90
2018-10-18T06:41:48.058Z,99.90
2018-10-18T06:44:18.959Z,99.90
2018-10-18T06:46:50.431Z,99.90
2018-10-18T06:49:21.199Z,99.90
2018-10-18T06:51:52.506Z,99.90
2018-10-18T06:54:23.276Z,99.90
2018-10-18T06:56:54.086Z,99.90
2018-10-18T06:59:24.822Z,99.90
2018-10-18T07:01:55.744Z,99.90
2018-10-18T07:04:26.865Z,99.90
2018-10-18T07:06:57.572Z,99.90
2018-10-18T07:09:28.600Z,99.90
2018-10-18T07:11:59.588Z,99.90
2018-10-18T07:14:30.736Z,99.90
2018-10-18T07:17:01.507Z,99.90
2018-10-18T07:19:32.245Z,99.90
2018-10-18T07:22:03.369Z,99.90
2018-10-18T07:24:35.049Z,99.90
2018-10-18T07:27:06.948Z,99.90
2018-10-18T07:29:37.994Z,99.90
2018-10-18T07:32:09.310Z,99.90
2018-10-18T07:34:40.126Z,99.90
2018-10-18T07:37:11.145Z,99.90
2018-10-18T07:39:41.987Z,99.90
2018-10-18T07:42:12.880Z,99.90
2018-10-18T07:44:43.913Z,99.90
2018-10-18T07:47:15.287Z,99.90
2018-10-18T07:49:46.647Z,99.90
2018-10-18T07:52:17.640Z,99.90
2018-10-18T07:54:48.630Z,99.90
2018-10-18T07:57:19.608Z,99.90
2018-10-18T07:59:50.665Z,99.90
2018-10-18T08:02:21.657Z,99.90
2018-10-18T08:04:52.416Z,99.90
2018-10-18T08:07:23.482Z,99.90
2018-10-18T08:09:55.346Z,99.90
2018-10-18T08:12:26.505Z,99.90
2018-10-18T08:14:57.336Z,99.90
2018-10-18T08:17:28.490Z,99.90
2018-10-18T08:19:59.475Z,99.90
2018-10-18T08:22:30.652Z,99.90
2018-10-18T08:25:01.829Z,99.90
2018-10-18T08:27:32.700Z,99.90
2018-10-18T08:30:03.834Z,99.90
2018-10-18T08:32:35.091Z,99.90
2018-10-18T08:35:06.619Z,99.90
2018-10-18T08:37:37.900Z,99.90
2018-10-18T08:40:10.337Z,99.90
2018-10-18T08:42:41.921Z,99.90
2018-10-18T08:45:13.193Z,99.90
2018-10-18T08:47:44.814Z,99.90
2018-10-18T08:50:16.026Z,99.90
2018-10-18T08:52:48.023Z,99.90
2018-10-18T08:55:19.895Z,99.90
2018-10-18T08:57:51.264Z,99.90
2018-10-18T09:00:22.201Z,99.90
2018-10-18T09:02:53.673Z,99.90
2018-10-18T09:05:25.200Z,99.90
2018-10-18T09:07:56.407Z,99.90
2018-10-18T09:10:27.736Z,99.90
2018-10-18T09:12:59.003Z,99.90
2018-10-18T09:15:30.180Z,99.90
2018-10-18T09:18:01.269Z,99.90
2018-10-18T09:20:32.123Z,99.90
2018-10-18T09:23:03.492Z,99.90
2018-10-18T09:25:35.826Z,99.90
2018-10-18T09:28:06.918Z,99.90
2018-10-18T09:30:38.165Z,99.90
2018-10-18T09:33:09.312Z,99.90
2018-10-18T09:35:40.452Z,99.90
2018-10-18T09:38:11.494Z,99.90
2018-10-18T09:40:42.514Z,99.90
2018-10-18T09:43:13.402Z,99.90
2018-10-18T09:45:44.302Z,99.90
2018-10-18T09:48:15.647Z,99.50
2018-10-18T09:50:46.612Z,98.80
2018-10-18T09:53:17.710Z,98.40
2018-10-18T09:55:48.988Z,98.00
2018-10-18T09:58:20.249Z,98.70
2018-10-18T10:00:56.258Z,97.90
2018-10-18T10:03:27.189Z,97.50
2018-10-18T10:05:58.022Z,97.20
2018-10-18T10:08:28.913Z,96.90
2018-10-18T10:10:59.895Z,96.70
2018-10-18T10:13:31.153Z,96.30
2018-10-18T10:16:02.289Z,96.70
2018-10-18T10:18:33.627Z,96.10
2018-10-18T10:21:04.450Z,95.20
2018-10-18T10:23:35.344Z,95.00
2018-10-18T10:26:06.294Z,95.00
2018-10-18T10:28:37.767Z,94.60
2018-10-18T10:31:09.341Z,94.00
2018-10-18T10:33:40.295Z,93.80
2018-10-18T10:36:10.998Z,94.10
2018-10-18T10:38:41.854Z,93.70
2018-10-18T10:41:12.870Z,93.10
2018-10-18T10:43:44.295Z,92.70
2018-10-18T10:46:15.512Z,93.00
2018-10-18T10:48:46.413Z,92.80
2018-10-18T10:51:17.577Z,92.70
2018-10-18T10:53:48.694Z,92.60
2018-10-18T10:56:19.952Z,92.40
2018-10-18T10:58:51.273Z,92.20
2018-10-18T11:01:23.967Z,92.00
2018-10-18T11:03:57.471Z,91.50
2018-10-18T11:06:29.338Z,90.90
2018-10-18T11:09:00.575Z,91.00
2018-10-18T11:11:32.013Z,90.60
2018-10-18T11:14:03.113Z,90.50
2018-10-18T11:16:34.184Z,89.00
2018-10-18T11:19:05.764Z,86.70
2018-10-18T11:21:36.870Z,84.20
2018-10-18T11:24:08.356Z,83.40
2018-10-18T11:26:39.731Z,82.00
2018-10-18T11:29:11.162Z,81.80
2018-10-18T11:31:44.110Z,80.00
2018-10-18T11:34:16.488Z,80.10
2018-10-18T11:36:47.498Z,78.40
2018-10-18T11:39:18.402Z,77.50
2018-10-18T11:41:49.321Z,77.80
2018-10-18T11:44:24.398Z,77.10
2018-10-18T11:46:55.236Z,76.80
2018-10-18T11:49:26.376Z,77.10
2018-10-18T11:51:57.402Z,76.50
2018-10-18T11:54:28.456Z,75.70
2018-10-18T11:57:00.426Z,77.60
2018-10-18T11:59:31.329Z,78.30
2018-10-18T12:02:02.478Z,80.00
2018-10-18T12:04:33.287Z,80.10
2018-10-18T12:07:04.178Z,80.50
2018-10-18T12:09:35.026Z,80.60
2018-10-18T12:12:06.007Z,80.20
2018-10-18T12:14:37.086Z,79.80
2018-10-18T12:17:08.237Z,79.30
2018-10-18T12:19:39.183Z,78.70
2018-10-18T12:22:10.039Z,78.40
2018-10-18T12:24:41.025Z,79.00
2018-10-18T12:27:12.152Z,79.60
2018-10-18T12:29:44.072Z,79.80
2018-10-18T12:32:15.150Z,78.70
2018-10-18T12:34:46.327Z,78.10
2018-10-18T12:37:17.580Z,79.20
2018-10-18T12:39:48.928Z,80.10
2018-10-18T12:42:19.989Z,81.80
2018-10-18T12:44:51.272Z,81.60
2018-10-18T12:47:22.371Z,80.90
2018-10-18T12:49:53.601Z,79.40
2018-10-18T12:52:25.182Z,77.80
2018-10-18T12:54:56.350Z,78.00
2018-10-18T12:57:27.439Z,77.10
2018-10-18T12:59:58.918Z,77.20
2018-10-18T13:02:29.953Z,77.30
2018-10-18T13:05:01.136Z,76.80
2018-10-18T13:07:30.869Z,76.30
2018-10-18T13:10:02.646Z,76.00
2018-10-18T13:12:34.411Z,75.80
2018-10-18T13:15:05.603Z,75.70
2018-10-18T13:17:36.696Z,76.50
2018-10-18T13:20:08.970Z,76.20
2018-10-18T13:22:40.812Z,76.50
2018-10-18T13:25:12.659Z,76.60
2018-10-18T13:27:43.672Z,77.50
2018-10-18T13:30:14.764Z,76.70
2018-10-18T13:32:46.077Z,77.30
2018-10-18T13:35:17.683Z,77.00
2018-10-18T13:37:48.568Z,77.70
2018-10-18T13:40:19.949Z,78.40
2018-10-18T13:42:50.905Z,78.10
2018-10-18T13:45:21.991Z,78.00
2018-10-18T13:47:53.827Z,77.30
2018-10-18T13:50:26.482Z,78.30
2018-10-18T13:52:57.837Z,78.10
2018-10-18T13:55:29.968Z,79.00
2018-10-18T13:58:01.000Z,79.80
2018-10-18T14:00:32.755Z,79.20
2018-10-18T14:03:03.834Z,78.70
2018-10-18T14:05:34.800Z,78.50
2018-10-18T14:08:06.177Z,78.40
2018-10-18T14:10:37.199Z,77.70
2018-10-18T14:13:08.113Z,77.50
2018-10-18T14:15:39.895Z,78.00
2018-10-18T14:18:10.740Z,77.20
2018-10-18T14:20:42.582Z,76.40
2018-10-18T14:23:13.714Z,76.60
2018-10-18T14:25:44.572Z,75.80
2018-10-18T14:28:16.004Z,76.90
2018-10-18T14:30:46.899Z,76.50
2018-10-18T14:33:18.250Z,77.00
2018-10-18T14:35:49.750Z,76.50
2018-10-18T14:38:22.201Z,77.30
2018-10-18T14:40:53.359Z,76.70
2018-10-18T14:43:24.968Z,76.90
2018-10-18T14:45:56.850Z,76.10
2018-10-18T14:48:27.824Z,76.40
2018-10-18T14:50:59.255Z,77.10
2018-10-18T14:53:30.183Z,78.30
2018-10-18T14:56:00.870Z,77.90
2018-10-18T14:58:32.801Z,79.40
2018-10-18T15:01:03.786Z,79.70
2018-10-18T15:03:34.614Z,79.00
2018-10-18T15:06:06.103Z,80.10
2018-10-18T15:08:37.034Z,80.20
2018-10-18T15:11:09.161Z,80.80
2018-10-18T15:13:40.254Z,81.70
2018-10-18T15:16:11.171Z,82.10
2018-10-18T15:18:44.188Z,83.30
2018-10-18T15:21:16.464Z,84.20
2018-10-18T15:23:47.725Z,85.90
2018-10-18T15:26:18.922Z,86.10
2018-10-18T15:28:50.384Z,87.00
2018-10-18T15:31:22.026Z,87.00
2018-10-18T15:33:53.281Z,87.10
2018-10-18T15:36:24.071Z,87.20
2018-10-18T15:38:55.206Z,87.50
2018-10-18T15:41:26.028Z,88.20
2018-10-18T15:43:56.900Z,88.90
2018-10-18T15:46:27.795Z,90.00
2018-10-18T15:48:58.442Z,90.20
2018-10-18T15:51:29.394Z,90.30
2018-10-18T15:54:00.762Z,90.60
2018-10-18T15:56:31.729Z,91.10
2018-10-18T15:59:02.460Z,91.30
2018-10-18T16:01:33.220Z,91.60
2018-10-18T16:04:04.207Z,91.90
2018-10-18T16:06:35.027Z,92.30
2018-10-18T16:09:09.578Z,92.50
2018-10-18T16:11:40.778Z,92.80
2018-10-18T16:14:11.832Z,93.10
2018-10-18T16:16:42.662Z,93.50
2018-10-18T16:19:13.391Z,93.80
2018-10-18T16:21:44.570Z,94.10
2018-10-18T16:24:15.621Z,94.30
2018-10-18T16:26:46.343Z,94.60
2018-10-18T16:29:17.515Z,94.80
2018-10-18T16:31:49.176Z,95.30
2018-10-18T16:34:20.260Z,95.60
2018-10-18T16:36:51.368Z,95.90
2018-10-18T16:39:22.452Z,96.20
2018-10-18T16:41:53.357Z,96.40
2018-10-18T16:44:24.535Z,96.60
2018-10-18T16:46:55.654Z,96.80
2018-10-18T16:49:26.775Z,96.90
2018-10-18T16:51:58.982Z,97.20
2018-10-18T16:54:31.026Z,97.50
2018-10-18T16:57:01.939Z,97.70
2018-10-18T16:59:33.311Z,97.50
2018-10-18T17:02:04.656Z,97.70
2018-10-18T17:04:35.390Z,98.10
2018-10-18T17:07:06.633Z,99.20
2018-10-18T17:09:37.916Z,99.90
2018-10-18T17:12:09.400Z,99.90
2018-10-18T17:14:40.512Z,99.90
2018-10-18T17:17:12.043Z,99.90
2018-10-18T17:19:43.887Z,99.90
2018-10-18T17:22:14.978Z,99.90
2018-10-18T17:24:45.871Z,99.90
2018-10-18T17:27:17.514Z,99.90
2018-10-18T17:29:48.424Z,99.90
2018-10-18T17:32:19.644Z,99.90
2018-10-18T17:34:50.576Z,99.90
2018-10-18T17:37:21.810Z,99.90
2018-10-18T17:39:52.954Z,99.90
2018-10-18T17:42:24.097Z,99.90
2018-10-18T17:44:55.275Z,99.90
2018-10-18T17:47:27.884Z,99.90
2018-10-18T17:49:59.412Z,99.90
2018-10-18T17:52:31.787Z,99.90
2018-10-18T17:55:04.069Z,99.90
2018-10-18T17:57:34.996Z,99.90
2018-10-18T18:00:11.097Z,99.90
2018-10-18T18:02:42.354Z,99.90
2018-10-18T18:05:14.522Z,99.90
2018-10-18T18:07:45.805Z,99.90
2018-10-18T18:10:18.773Z,99.90
2018-10-18T18:12:49.817Z,99.90
2018-10-18T18:15:20.849Z,99.90
2018-10-18T18:17:52.007Z,99.90
2018-10-18T18:20:23.261Z,99.90
2018-10-18T18:22:54.664Z,99.90
2018-10-18T18:25:25.940Z,99.90
2018-10-18T18:27:58.335Z,99.90
2018-10-18T18:30:29.598Z,99.90
2018-10-18T18:33:00.936Z,99.90
2018-10-18T18:35:32.795Z,99.90
2018-10-18T18:38:05.842Z,99.90
2018-10-18T18:40:37.578Z,99.90
2018-10-18T18:43:08.912Z,99.90
2018-10-18T18:45:44.843Z,99.90
2018-10-18T18:48:20.923Z,99.90
2018-10-18T18:51:00.087Z,99.90
2018-10-18T18:53:40.534Z,99.90
2018-10-18T18:56:16.732Z,99.90
2018-10-18T18:58:48.712Z,99.90
2018-10-18T19:01:27.414Z,99.90
2018-10-18T19:04:00.904Z,99.90
2018-10-18T19:06:34.964Z,99.90
2018-10-18T19:09:11.949Z,99.90
2018-10-18T19:11:44.178Z,99.90
2018-10-18T19:14:17.936Z,99.90
2018-10-18T19:16:52.205Z,99.90
2018-10-18T19:19:26.018Z,99.90
2018-10-18T19:21:59.910Z,99.90
2018-10-18T19:24:32.364Z,99.90
2018-10-18T19:27:04.386Z,99.90
2018-10-18T19:29:38.170Z,99.90
2018-10-18T19:32:09.752Z,99.90
2018-10-18T19:34:43.164Z,99.90
2018-10-18T19:37:15.292Z,99.90
2018-10-18T19:39:48.900Z,99.90
2018-10-18T19:42:20.354Z,99.90
2018-10-18T19:44:52.167Z,99.90
2018-10-18T19:47:23.840Z,99.90
2018-10-18T19:49:55.680Z,99.90
2018-10-18T19:52:27.156Z,99.90
2018-10-18T19:54:58.187Z,99.90
2018-10-18T19:57:30.771Z,99.90
2018-10-18T20:00:02.417Z,99.90
2018-10-18T20:02:33.818Z,99.90
2018-10-18T20:05:05.661Z,99.90
2018-10-18T20:07:37.271Z,99.90
2018-10-18T20:10:09.742Z,99.90
2018-10-18T20:12:41.341Z,99.90
2018-10-18T20:15:13.732Z,99.90
2018-10-18T20:17:45.907Z,99.90
2018-10-18T20:20:17.962Z,99.90
2018-10-18T20:22:50.870Z,99.90
2018-10-18T20:25:22.201Z,99.90
2018-10-18T20:27:53.587Z,99.90
2018-10-18T20:30:26.117Z,99.90
2018-10-18T20:32:58.505Z,99.90
2018-10-18T20:35:30.726Z,99.90
2018-10-18T20:38:03.507Z,99.90
2018-10-18T20:40:35.010Z,99.90
2018-10-18T20:43:06.301Z,99.90
2018-10-18T20:45:37.756Z,99.90
2018-10-18T20:48:09.404Z,99.90
2018-10-18T20:50:40.868Z,99.90
2018-10-18T20:53:14.175Z,99.90
2018-10-18T20:55:45.783Z,99.90
2018-10-18T20:58:17.656Z,99.90
2018-10-18T21:00:49.157Z,99.90
2018-10-18T21:03:22.042Z,99.90
2018-10-18T21:05:53.272Z,99.90
2018-10-18T21:08:29.837Z,99.90
2018-10-18T21:11:02.845Z,99.90
2018-10-18T21:13:34.012Z,99.90
2018-10-18T21:16:10.410Z,99.90
2018-10-18T21:18:42.140Z,99.90
2018-10-18T21:21:13.523Z,99.90
2018-10-18T21:23:44.820Z,99.90
2018-10-18T21:26:23.332Z,99.90
2018-10-18T21:28:54.762Z,99.90
2018-10-18T21:31:25.710Z,99.90
2018-10-18T21:33:57.690Z,99.90
2018-10-18T21:36:28.824Z,99.90
2018-10-18T21:39:00.071Z,99.90
2018-10-18T21:41:31.092Z,99.90
2018-10-18T21:44:02.153Z,99.90
2018-10-18T21:46:33.130Z,99.90
2018-10-18T21:49:05.090Z,99.90
2018-10-18T21:51:36.038Z,99.90
2018-10-18T21:54:07.996Z,99.90
2018-10-18T21:56:38.853Z,99.90
2018-10-18T21:59:09.902Z,99.90
2018-10-18T22:01:43.740Z,99.90
2018-10-18T22:04:14.811Z,99.90
2018-10-18T22:06:46.084Z,99.90
2018-10-18T22:09:17.209Z,99.90
2018-10-18T22:11:48.078Z,99.90
2018-10-18T22:14:19.273Z,99.90
2018-10-18T22:16:50.886Z,99.90
2018-10-18T22:19:21.680Z,99.90
2018-10-18T22:21:52.380Z,99.90
2018-10-18T22:24:23.251Z,99.90
2018-10-18T22:26:54.135Z,99.90
2018-10-18T22:29:24.987Z,99.90
2018-10-18T22:31:55.868Z,99.90
2018-10-18T22:34:26.609Z,99.90
2018-10-18T22:36:57.500Z,99.90
2018-10-18T22:39:28.434Z,99.90
2018-10-18T22:41:59.201Z,99.90
2018-10-18T22:44:30.085Z,99.90
2018-10-18T22:47:01.252Z,99.90
2018-10-18T22:49:32.103Z,99.90
2018-10-18T22:52:03.495Z,99.90
2018-10-18T22:54:34.209Z,99.90
2018-10-18T22:57:05.171Z,99.90
2018-10-18T22:59:36.008Z,99.90
2018-10-18T23:02:13.368Z,99.90
2018-10-18T23:04:44.606Z,99.90
2018-10-18T23:07:15.541Z,99.90
2018-10-18T23:09:46.496Z,99.90
2018-10-18T23:12:17.557Z,99.90
2018-10-18T23:14:48.621Z,99.90
2018-10-18T23:17:19.746Z,99.90
2018-10-18T23:19:50.714Z,99.90
2018-10-18T23:22:21.574Z,99.90
2018-10-18T23:24:53.434Z,99.90
2018-10-18T23:27:23.348Z,99.90
2018-10-18T23:29:54.575Z,99.90
2018-10-18T23:32:25.378Z,99.90
2018-10-18T23:34:56.207Z,99.90
2018-10-18T23:37:26.993Z,99.90
2018-10-18T23:39:57.724Z,99.90
2018-10-18T23:42:28.515Z,99.90
2018-10-18T23:44:59.158Z,99.90
2018-10-18T23:47:29.761Z,99.90
2018-10-18T23:50:00.247Z,99.90
2018-10-18T23:52:31.083Z,99.90
2018-10-18T23:55:01.905Z,99.90
2018-10-18T23:57:32.620Z,99.90
